Time;durP1;ratioP1;P1;durP2;ratioP2;P2;SDS_P1;SDS_P2;PMS_P1;PMS_P2;Temp;Humidity;BMP_temperature;BMP_pressure;BME280_temperature;BME280_humidity;BME280_pressure;Samples;Min_cycle;Max_cycle;Signal;HPM_P1;HPM_P2
2021/10/11 00:01:12;;;;;;;;;55.50;41.75;;;;;20.79;49.82;101940.84;5102150;27;54288;-72
2021/10/11 00:03:37;;;;;;;;;49.75;40.75;;;;;20.76;49.60;101932.91;5068318;27;60202;-72
2021/10/11 00:06:03;;;;;;;;;52.00;42.50;;;;;20.78;49.74;101934.66;5095389;27;54059;-72
2021/10/11 00:08:28;;;;;;;;;53.50;42.50;;;;;20.75;49.96;101934.69;5061563;27;47105;-73
2021/10/11 00:10:54;;;;;;;;;53.50;39.75;;;;;20.75;49.92;101925.84;5095417;27;49588;-73
2021/10/11 00:13:20;;;;;;;;;53.75;42.50;;;;;20.75;50.24;101932.03;5065405;27;45691;-73
2021/10/11 00:15:45;;;;;;;;;51.50;41.50;;;;;20.77;49.97;101930.25;5068525;27;45560;-73
2021/10/11 00:18:10;;;;;;;;;53.25;41.75;;;;;20.77;49.91;101932.91;5121743;27;60304;-73
2021/10/11 00:20:36;;;;;;;;;52.50;41.00;;;;;20.78;49.79;101931.13;5122735;27;53747;-73
2021/10/11 00:23:02;;;;;;;;;53.75;42.50;;;;;20.75;49.86;101929.38;5074385;27;51433;-73
2021/10/11 00:25:27;;;;;;;;;55.50;44.25;;;;;20.76;50.07;101932.91;5075364;27;45493;-73
2021/10/11 00:27:53;;;;;;;;;51.75;42.50;;;;;20.77;50.30;101934.69;5124797;27;45254;-73
2021/10/11 00:30:18;;;;;;;;;49.75;41.50;;;;;20.78;50.19;101941.75;5088385;27;58475;-73
2021/10/11 00:32:46;;;;;;;;;53.00;40.75;;;;;20.77;50.30;101935.56;5105569;27;52650;-73
2021/10/11 00:35:12;;;;;;;;;51.75;42.25;;;;;20.80;50.29;101935.50;5092384;27;45448;-73
2021/10/11 00:37:37;;;;;;;;;51.50;40.75;;;;;20.82;50.60;101941.66;5088400;27;48221;-73
2021/10/11 00:40:04;;;;;;;;;56.75;44.75;;;;;20.81;49.97;101939.91;5103389;27;46303;-72
2021/10/11 00:42:29;;;;;;;;;56.75;44.00;;;;;20.78;50.51;101934.66;5092771;27;45253;-73
2021/10/11 00:44:55;;;;;;;;;59.50;45.75;;;;;20.81;50.59;101934.59;5091272;27;49188;-73
2021/10/11 00:47:20;;;;;;;;;50.75;42.75;;;;;20.82;50.64;101935.47;5084460;27;61931;-73
2021/10/11 00:49:45;;;;;;;;;54.75;43.50;;;;;20.82;50.44;101941.66;5077893;27;61605;-73
2021/10/11 00:52:11;;;;;;;;;53.50;43.75;;;;;20.81;50.41;101937.25;5084841;27;53387;-73
2021/10/11 00:54:36;;;;;;;;;51.75;40.50;;;;;20.78;51.02;101928.47;5084486;27;63715;-72
2021/10/11 00:57:02;;;;;;;;;56.00;45.25;;;;;20.80;50.77;101938.16;5085064;27;45308;-72
2021/10/11 00:59:27;;;;;;;;;61.00;46.25;;;;;20.80;50.65;101937.28;5085104;27;45414;-73
2021/10/11 01:01:52;;;;;;;;;51.25;43.25;;;;;20.76;51.08;101923.19;5085012;27;45335;-73
2021/10/11 01:04:18;;;;;;;;;56.00;44.50;;;;;20.79;50.94;101927.56;5077728;27;49022;-73
2021/10/11 01:06:44;;;;;;;;;52.50;42.50;;;;;20.76;51.17;101917.88;5104642;27;45287;-73
2021/10/11 01:09:10;;;;;;;;;59.25;43.25;;;;;20.74;51.11;101922.31;5068113;27;45262;-73
2021/10/11 01:11:36;;;;;;;;;55.75;42.00;;;;;20.75;50.95;101928.50;5085011;27;45251;-73
2021/10/11 01:14:01;;;;;;;;;53.00;41.75;;;;;20.72;51.15;101921.47;5084731;27;45640;-73
2021/10/11 01:16:27;;;;;;;;;56.50;43.50;;;;;20.69;51.07;101921.53;5084176;27;46527;-72
2021/10/11 01:18:52;;;;;;;;;56.50;44.00;;;;;20.69;51.08;101923.28;5075399;27;45473;-73
2021/10/11 01:21:18;;;;;;;;;54.00;42.25;;;;;20.66;51.19;101924.19;5098042;27;48200;-73
2021/10/11 01:23:43;;;;;;;;;57.00;42.75;;;;;20.65;51.14;101921.56;5093699;27;45412;-73
2021/10/11 01:26:09;;;;;;;;;58.00;45.25;;;;;20.64;51.26;101920.69;5086365;27;46086;-73
2021/10/11 01:28:34;;;;;;;;;53.25;42.00;;;;;20.65;51.51;101924.22;5087474;27;45726;-73
2021/10/11 01:30:59;;;;;;;;;58.25;45.25;;;;;20.63;51.17;101923.38;5085675;27;45299;-73
2021/10/11 01:33:25;;;;;;;;;57.50;46.00;;;;;20.62;51.57;101916.31;5079412;27;65976;-73
2021/10/11 01:35:50;;;;;;;;;56.25;44.75;;;;;20.62;51.65;101914.53;5084730;27;67331;-73
2021/10/11 01:38:16;;;;;;;;;54.00;43.50;;;;;20.63;51.58;101921.59;5083537;27;56260;-72
2021/10/11 01:40:41;;;;;;;;;55.00;41.75;;;;;20.65;51.67;101922.44;5097983;27;53956;-73
2021/10/11 01:43:08;;;;;;;;;56.50;44.25;;;;;20.66;51.40;101918.00;5067088;27;56488;-73
2021/10/11 01:45:33;;;;;;;;;49.50;40.00;;;;;20.67;52.00;101911.81;5050654;27;48214;-73
2021/10/11 01:47:59;;;;;;;;;57.50;43.75;;;;;20.71;51.46;101906.44;5050609;27;46111;-73
2021/10/11 01:50:25;;;;;;;;;56.00;42.75;;;;;20.72;51.62;101897.59;5067367;27;45365;-73
2021/10/11 01:52:50;;;;;;;;;50.25;39.75;;;;;20.70;51.72;101899.41;5102366;27;45491;-72
2021/10/11 01:55:15;;;;;;;;;53.75;41.00;;;;;20.71;51.45;101890.53;5066486;27;59537;-72
2021/10/11 01:57:41;;;;;;;;;54.50;42.75;;;;;20.69;51.77;101902.94;5102005;27;57061;-73
2021/10/11 02:00:07;;;;;;;;;58.00;43.75;;;;;20.70;51.88;101909.13;5102432;27;45424;-73
2021/10/11 02:02:33;;;;;;;;;53.25;41.75;;;;;20.69;51.89;101915.34;5084119;27;45805;-73
2021/10/11 02:04:58;;;;;;;;;54.25;42.00;;;;;20.67;51.98;101919.75;5102558;27;48224;-72
2021/10/11 02:07:24;;;;;;;;;54.25;41.50;;;;;20.67;52.22;101919.75;5110313;27;45484;-73
2021/10/11 02:09:49;;;;;;;;;52.50;39.25;;;;;20.68;52.11;101929.50;5066414;27;56260;-72
2021/10/11 02:12:15;;;;;;;;;47.75;40.00;;;;;20.67;52.06;101917.09;5083680;27;45305;-72
2021/10/11 02:14:40;;;;;;;;;52.00;41.50;;;;;20.66;52.36;101918.00;5097246;27;47093;-73
2021/10/11 02:17:06;;;;;;;;;52.25;41.50;;;;;20.66;52.16;101918.00;5095470;27;45422;-72
2021/10/11 02:19:31;;;;;;;;;53.00;39.00;;;;;20.63;52.07;101912.75;5086678;27;55595;-73
2021/10/11 02:21:57;;;;;;;;;51.50;39.25;;;;;20.60;52.11;101909.25;5086947;27;45477;-72
2021/10/11 02:24:22;;;;;;;;;48.00;37.75;;;;;20.62;52.46;101908.34;5117021;27;64383;-72
2021/10/11 02:26:47;;;;;;;;;52.00;41.25;;;;;20.62;52.28;101911.00;5094076;27;61718;-73
2021/10/11 02:29:13;;;;;;;;;54.75;42.25;;;;;20.58;52.19;101908.38;5086154;27;45239;-72
2021/10/11 02:31:38;;;;;;;;;51.50;39.00;;;;;20.55;52.51;101911.09;5065963;27;65928;-72
2021/10/11 02:34:03;;;;;;;;;53.75;41.50;;;;;20.55;52.52;101913.72;5106250;27;45430;-72
2021/10/11 02:36:29;;;;;;;;;50.25;40.00;;;;;20.56;52.40;101911.97;5082586;27;60535;-72
2021/10/11 02:38:54;;;;;;;;;47.25;36.00;;;;;20.56;52.61;101902.22;5082775;27;56483;-72
2021/10/11 02:41:21;;;;;;;;;49.00;38.00;;;;;20.56;52.35;101896.03;5083337;27;45837;-72
2021/10/11 02:43:47;;;;;;;;;50.25;38.00;;;;;20.55;52.83;101894.28;5083563;27;46062;-73
2021/10/11 02:46:12;;;;;;;;;48.75;37.25;;;;;20.56;52.68;101888.09;5077262;27;45362;-73
2021/10/11 02:48:38;;;;;;;;;48.75;39.25;;;;;20.59;52.63;101890.72;5082625;27;59456;-72
2021/10/11 02:51:03;;;;;;;;;49.75;39.75;;;;;20.58;52.78;101889.81;5089965;27;59918;-72
2021/10/11 02:53:29;;;;;;;;;50.75;40.50;;;;;20.59;52.62;101893.38;5082994;27;45441;-72
2021/10/11 02:55:54;;;;;;;;;47.50;39.50;;;;;20.60;52.51;101887.16;5049413;27;45459;-73
2021/10/11 02:58:19;;;;;;;;;51.25;40.00;;;;;20.60;52.65;101882.75;5079813;27;45950;-73
2021/10/11 03:00:45;;;;;;;;;52.50;40.75;;;;;20.60;52.41;101881.88;5101462;27;45448;-73
2021/10/11 03:03:10;;;;;;;;;47.75;38.50;;;;;20.59;52.43;101878.34;5066117;27;46918;-72
2021/10/11 03:05:36;;;;;;;;;48.50;36.50;;;;;20.59;52.64;101882.75;5073052;27;45357;-73
2021/10/11 03:08:01;;;;;;;;;47.50;36.00;;;;;20.57;52.73;101877.44;5068693;27;59083;-73
2021/10/11 03:10:26;;;;;;;;;50.00;37.75;;;;;20.56;52.72;101877.47;5055876;27;45390;-72
2021/10/11 03:12:52;;;;;;;;;46.50;36.75;;;;;20.54;52.74;101881.94;5078786;27;67380;-72
2021/10/11 03:15:17;;;;;;;;;46.75;39.75;;;;;20.54;52.54;101871.31;5072281;27;55964;-72
2021/10/11 03:17:43;;;;;;;;;49.25;37.50;;;;;20.56;52.81;101881.00;5115169;27;45192;-72
2021/10/11 03:20:09;;;;;;;;;47.25;37.50;;;;;20.56;52.93;101880.13;5092731;27;45429;-72
2021/10/11 03:22:34;;;;;;;;;33.50;30.75;;;;;20.57;52.81;101890.72;5082737;27;48349;-72
2021/10/11 03:24:59;;;;;;;;;46.50;37.25;;;;;20.57;52.81;101892.50;5065164;27;63523;-72
2021/10/11 03:27:25;;;;;;;;;46.75;34.25;;;;;20.56;52.52;101880.13;5078461;27;51543;-73
2021/10/11 03:29:50;;;;;;;;;40.25;34.50;;;;;20.56;52.80;101890.75;5065146;27;64481;-72
2021/10/11 03:32:15;;;;;;;;;41.50;33.25;;;;;20.54;53.21;101896.06;5078001;27;64889;-72
2021/10/11 03:34:41;;;;;;;;;46.75;35.50;;;;;20.53;52.78;101894.31;5086622;27;45372;-73
2021/10/11 03:37:06;;;;;;;;;42.25;36.00;;;;;20.55;52.65;101894.28;5064950;27;56161;-73
2021/10/11 03:39:32;;;;;;;;;41.00;32.00;;;;;20.56;52.87;101898.69;5064923;27;67528;-73
2021/10/11 03:41:57;;;;;;;;;32.50;30.75;;;;;20.56;52.91;101899.56;5100075;27;61073;-72
2021/10/11 03:44:22;;;;;;;;;36.00;33.00;;;;;20.56;53.28;101896.91;5064918;27;65124;-73
2021/10/11 03:46:48;;;;;;;;;39.00;34.00;;;;;20.59;53.02;101896.03;5065600;27;45268;-73
2021/10/11 03:49:13;;;;;;;;;38.25;31.25;;;;;20.60;52.96;101900.44;5065349;27;45676;-73
2021/10/11 03:51:39;;;;;;;;;30.50;25.75;;;;;20.60;52.99;101893.34;5081728;27;45301;-73
2021/10/11 03:54:04;;;;;;;;;38.50;32.50;;;;;20.61;53.18;101904.81;5082074;27;53936;-73
2021/10/11 03:56:29;;;;;;;;;37.25;33.75;;;;;20.62;53.26;101905.72;5081740;27;56826;-73
2021/10/11 03:58:55;;;;;;;;;32.75;29.75;;;;;20.62;53.20;101901.28;5081722;27;62092;-73
2021/10/11 04:01:20;;;;;;;;;31.75;28.25;;;;;20.66;53.27;101902.09;5081534;27;66631;-72
2021/10/11 04:03:46;;;;;;;;;29.75;26.00;;;;;20.67;52.61;101906.50;5048602;27;45402;-73
2021/10/11 04:06:11;;;;;;;;;30.00;28.75;;;;;20.68;52.96;101906.50;5082612;27;45473;-72
2021/10/11 04:08:39;;;;;;;;;29.75;25.25;;;;;20.67;52.51;101888.81;5082061;27;45422;-73
2021/10/11 04:13:36;;;;;;;;;31.50;27.50;;;;;20.66;52.82;101892.34;5072341;27;45348;-73
2021/10/11 04:16:01;;;;;;;;;26.00;24.00;;;;;20.68;53.03;101892.38;5069186;27;45280;-73
2021/10/11 04:18:27;;;;;;;;;30.25;25.25;;;;;20.67;52.95;101890.59;5071378;27;45264;-73
2021/10/11 04:20:52;;;;;;;;;26.50;22.50;;;;;20.69;52.63;101900.28;5113732;27;45298;-72
2021/10/11 04:23:18;;;;;;;;;32.75;29.25;;;;;20.70;52.95;101903.81;5065047;27;45295;-72
2021/10/11 04:25:43;;;;;;;;;27.00;23.00;;;;;20.69;52.68;101902.94;5084186;27;45251;-72
2021/10/11 04:28:10;;;;;;;;;27.75;26.00;;;;;20.70;52.92;101904.69;5101762;27;60327;-72
2021/10/11 04:30:36;;;;;;;;;24.75;22.25;;;;;20.69;52.71;101897.66;5102726;27;47074;-72
2021/10/11 04:33:01;;;;;;;;;28.75;24.75;;;;;20.68;52.59;101906.50;5076136;27;45937;-72
2021/10/11 04:35:27;;;;;;;;;18.75;15.00;;;;;20.68;52.62;101909.16;5085075;27;56065;-73
2021/10/11 04:37:52;;;;;;;;;22.75;20.75;;;;;20.69;52.95;101910.03;5078120;28;45508;-73
2021/10/11 04:40:19;;;;;;;;;29.50;23.25;;;;;20.68;52.96;101911.81;5088288;27;48360;-72
2021/10/11 04:42:44;;;;;;;;;22.50;21.50;;;;;20.70;52.77;101914.44;5064861;27;45340;-71
2021/10/11 04:45:10;;;;;;;;;26.25;21.25;;;;;20.66;52.83;101910.06;5085223;27;45348;-72
2021/10/11 04:47:36;;;;;;;;;20.75;19.75;;;;;20.66;53.05;101918.00;5080277;27;45484;-71
2021/10/11 04:50:01;;;;;;;;;28.75;21.50;;;;;20.67;53.79;101918.00;5077418;27;45363;-69
2021/10/11 04:52:27;;;;;;;;;21.00;19.75;;;;;20.68;53.42;101910.94;5096646;27;48305;-77
2021/10/11 04:54:52;;;;;;;;;19.75;17.00;;;;;20.74;53.94;101917.00;5048459;28;45379;-72
2021/10/11 04:57:17;;;;;;;;;21.75;19.75;;;;;20.85;55.88;101914.22;5077175;28;45425;-71
2021/10/11 04:59:43;;;;;;;;;28.50;21.50;;;;;20.95;55.88;101918.50;5090607;27;47388;-72
2021/10/11 05:02:08;;;;;;;;;25.25;19.50;;;;;21.11;55.01;101922.66;5079625;27;61919;-72
2021/10/11 05:04:37;;;;;;;;;19.75;16.25;;;;;21.25;54.54;101918.91;5082735;27;45227;-72
2021/10/11 05:07:03;;;;;;;;;24.50;21.75;;;;;21.33;54.67;101915.25;5098446;27;45391;-71
2021/10/11 05:09:28;;;;;;;;;26.25;23.50;;;;;21.43;54.24;101915.97;5102872;27;45300;-72
2021/10/11 05:11:53;;;;;;;;;23.00;21.00;;;;;21.54;53.75;101929.06;5102922;27;49280;-72
2021/10/11 05:14:19;;;;;;;;;22.75;22.00;;;;;21.59;53.38;101919.25;5102641;27;59439;-73
2021/10/11 05:16:44;;;;;;;;;23.00;17.25;;;;;21.64;52.95;101920.94;5101242;27;59457;-75
2021/10/11 05:19:13;;;;;;;;;22.25;19.00;;;;;21.64;52.58;101917.41;5101413;27;46329;-74
2021/10/11 05:21:38;;;;;;;;;19.00;17.00;;;;;21.66;52.20;101923.56;5103944;27;45292;-75
2021/10/11 05:24:03;;;;;;;;;20.00;13.75;;;;;21.65;52.13;101927.13;5081569;27;45250;-75
2021/10/11 05:26:31;;;;;;;;;17.00;14.50;;;;;21.62;52.00;101924.50;5091597;27;54492;-75
2021/10/11 05:28:57;;;;;;;;;16.75;15.75;;;;;21.59;52.04;101925.44;5111535;27;45447;-76
2021/10/11 05:31:22;;;;;;;;;16.75;15.25;;;;;21.53;52.17;101924.66;5081118;28;45528;-74
2021/10/11 05:33:47;;;;;;;;;16.25;15.25;;;;;21.50;52.40;101925.59;5084611;27;57077;-74
2021/10/11 05:36:13;;;;;;;;;16.00;14.50;;;;;21.46;51.72;101931.88;5109645;27;50850;-75
2021/10/11 05:38:38;;;;;;;;;16.50;13.50;;;;;21.37;52.13;101927.59;5110542;27;60980;-74
2021/10/11 05:41:07;;;;;;;;;15.25;11.75;;;;;21.33;51.72;101928.53;5082641;27;50443;-74
2021/10/11 05:43:38;;;;;;;;;16.25;15.25;;;;;21.26;52.14;101933.94;5091183;27;45207;-73
2021/10/11 05:46:04;;;;;;;;;19.25;15.50;;;;;21.20;52.55;101934.94;5073381;27;45427;-75
2021/10/11 05:48:29;;;;;;;;;16.25;12.50;;;;;21.20;52.27;101928.72;5054516;27;48082;-75
2021/10/11 05:50:55;;;;;;;;;15.75;14.00;;;;;21.15;52.30;101934.97;5073291;27;45416;-75
2021/10/11 05:53:20;;;;;;;;;18.00;14.00;;;;;21.12;52.12;101936.81;5097901;27;45330;-75
2021/10/11 05:55:46;;;;;;;;;16.75;15.50;;;;;21.09;52.65;101935.06;5067319;27;45442;-75
2021/10/11 05:58:11;;;;;;;;;17.50;14.75;;;;;21.10;52.24;101943.91;5064587;27;49949;-73
2021/10/11 06:00:37;;;;;;;;;17.50;13.75;;;;;21.08;52.80;101940.41;5078369;27;45948;-73
2021/10/11 06:03:05;;;;;;;;;20.00;14.00;;;;;21.07;53.05;101951.94;5084043;27;45333;-72
2021/10/11 06:05:30;;;;;;;;;21.25;17.50;;;;;21.06;53.48;101952.84;5072557;27;45360;-73
2021/10/11 06:07:56;;;;;;;;;17.50;14.75;;;;;21.10;52.34;101955.41;5088375;27;45192;-74
2021/10/11 06:10:21;;;;;;;;;16.25;14.75;;;;;21.08;52.77;101951.91;5072138;27;45347;-74
2021/10/11 06:12:46;;;;;;;;;16.75;14.00;;;;;21.07;52.54;101955.47;5071608;27;45398;-74
2021/10/11 06:15:12;;;;;;;;;11.75;11.75;;;;;21.04;52.29;101958.16;5102265;27;45403;-74
2021/10/11 06:17:37;;;;;;;;;14.50;12.50;;;;;21.00;52.02;101964.41;5078214;27;45537;-75
2021/10/11 06:20:03;;;;;;;;;12.25;11.50;;;;;20.98;52.32;101968.88;5086951;27;45257;-72
2021/10/11 06:22:31;;;;;;;;;12.25;11.50;;;;;20.97;52.46;101969.78;5102202;27;45394;-72
2021/10/11 06:24:57;;;;;;;;;12.00;12.00;;;;;20.97;52.61;101976.84;5078000;27;45823;-74
2021/10/11 06:27:22;;;;;;;;;16.25;14.50;;;;;20.96;51.99;101978.63;5103960;27;45233;-74
2021/10/11 06:29:47;;;;;;;;;13.75;12.75;;;;;20.94;52.52;101974.22;5086849;27;45308;-74
2021/10/11 06:32:13;;;;;;;;;14.50;14.25;;;;;20.91;52.11;101974.28;5067516;27;45744;-74
2021/10/11 06:34:39;;;;;;;;;15.75;14.50;;;;;20.89;52.12;101971.66;5076257;27;45399;-74
2021/10/11 06:37:05;;;;;;;;;11.25;11.00;;;;;20.90;51.81;101973.41;5067933;27;47291;-74
2021/10/11 06:39:30;;;;;;;;;11.75;11.75;;;;;20.88;51.83;101977.84;5093380;27;45442;-74
2021/10/11 06:41:56;;;;;;;;;16.75;13.00;;;;;20.89;52.07;101977.84;5092446;27;45464;-74
2021/10/11 06:44:21;;;;;;;;;13.75;12.00;;;;;20.92;51.75;101984.00;5078732;27;45559;-75
2021/10/11 06:46:49;;;;;;;;;12.00;11.00;;;;;20.91;51.82;101976.94;5092849;27;47061;-75
2021/10/11 06:49:14;;;;;;;;;14.25;10.75;;;;;20.92;52.22;101984.00;5078018;27;45355;-75
2021/10/11 06:51:40;;;;;;;;;12.50;11.00;;;;;20.94;52.09;101987.50;5089681;27;50754;-73
2021/10/11 06:54:05;;;;;;;;;13.25;12.50;;;;;20.98;52.35;101987.44;5073693;27;59170;-78
2021/10/11 06:56:30;;;;;;;;;12.25;12.25;;;;;21.03;52.01;101998.88;5092223;27;64803;-77
2021/10/11 06:58:56;;;;;;;;;12.25;11.00;;;;;21.08;51.59;101997.03;5110158;27;45801;-77
2021/10/11 07:01:21;;;;;;;;;10.75;8.25;;;;;21.13;50.56;101989.00;5114614;27;50958;-77
2021/10/11 07:03:47;;;;;;;;;16.00;10.25;;;;;21.15;51.34;101993.38;5095873;27;45454;-77
2021/10/11 07:06:20;;;;;;;;;10.00;8.75;;;;;21.16;50.90;101988.94;5075532;27;54287;-76
2021/10/11 07:08:46;;;;;;;;;10.50;9.50;;;;;21.20;50.11;101984.47;5119698;27;45539;-75
2021/10/11 07:11:11;;;;;;;;;9.50;7.50;;;;;21.17;50.10;101982.75;5109525;27;46067;-77
2021/10/11 07:13:37;;;;;;;;;8.75;8.75;;;;;21.17;49.79;101982.75;5075132;27;45608;-76
2021/10/11 07:16:05;;;;;;;;;9.00;9.00;;;;;21.14;49.73;101996.06;5109451;27;45865;-76
2021/10/11 07:18:31;;;;;;;;;10.50;7.25;;;;;21.14;49.55;101996.06;5093229;27;45498;-76
2021/10/11 07:21:01;;;;;;;;;7.25;7.25;;;;;21.21;49.63;101997.75;5080204;27;45375;-74
2021/10/11 07:23:28;;;;;;;;;14.25;10.00;;;;;21.27;49.53;102000.31;5090419;27;45674;-79
2021/10/11 07:25:54;;;;;;;;;10.00;9.00;;;;;21.22;48.93;102004.81;5089530;27;46298;-78
2021/10/11 07:28:20;;;;;;;;;8.00;7.00;;;;;21.13;48.87;102000.50;5104029;27;45357;-79
2021/10/11 07:30:45;;;;;;;;;7.25;6.25;;;;;21.08;48.84;102014.72;5102454;27;59229;-79
2021/10/11 07:33:13;;;;;;;;;11.75;9.00;;;;;21.05;48.78;102028.06;5112255;27;50598;-79
2021/10/11 07:35:42;;;;;;;;;6.75;6.50;;;;;21.01;49.34;102027.19;5068497;27;48858;-80
2021/10/11 07:38:08;;;;;;;;;9.75;8.00;;;;;20.97;48.99;102025.50;5075778;27;46097;-80
2021/10/11 07:40:33;;;;;;;;;8.00;7.00;;;;;20.99;49.02;102033.44;5081797;27;45456;-80
2021/10/11 07:42:59;;;;;;;;;11.75;9.50;;;;;20.99;48.95;102031.66;5067760;27;45495;-81
2021/10/11 07:45:24;;;;;;;;;8.00;7.25;;;;;20.99;49.53;102036.97;5095041;27;63088;-78
2021/10/11 07:47:50;;;;;;;;;9.00;8.00;;;;;20.99;49.21;102038.75;5111163;27;45533;-76
2021/10/11 07:50:15;;;;;;;;;10.25;8.25;;;;;20.95;48.95;102040.56;5071654;27;45414;-77
2021/10/11 07:52:41;;;;;;;;;8.25;7.50;;;;;20.95;49.53;102037.06;5075122;27;45312;-74
2021/10/11 07:55:07;;;;;;;;;5.50;5.00;;;;;20.98;49.44;102039.66;5094845;27;46851;-74
2021/10/11 07:57:35;;;;;;;;;7.25;6.00;;;;;20.98;49.65;102042.31;5065609;27;46049;-75
2021/10/11 08:00:05;;;;;;;;;6.75;6.75;;;;;20.99;49.28;102038.75;5080661;27;45722;-76
2021/10/11 08:02:31;;;;;;;;;8.00;6.00;;;;;20.98;49.11;102037.00;5083265;27;45956;-75
2021/10/11 08:04:56;;;;;;;;;6.50;6.50;;;;;21.00;48.84;102037.84;5100769;27;47182;-76
2021/10/11 08:07:21;;;;;;;;;7.25;6.50;;;;;21.01;48.81;102050.22;5064680;27;60601;-76
2021/10/11 08:09:47;;;;;;;;;6.00;6.00;;;;;21.03;49.21;102045.78;5064535;27;45354;-75
2021/10/11 08:12:12;;;;;;;;;6.00;5.25;;;;;21.08;48.64;102050.13;5077002;27;60676;-76
2021/10/11 08:14:38;;;;;;;;;5.75;5.25;;;;;21.11;48.75;102054.50;5091225;27;48204;-76
2021/10/11 08:17:03;;;;;;;;;4.25;3.75;;;;;21.14;48.50;102060.66;5054983;27;58420;-77
2021/10/11 08:19:28;;;;;;;;;7.25;5.00;;;;;21.15;48.68;102049.16;5078314;27;45397;-75
2021/10/11 08:21:54;;;;;;;;;5.75;5.00;;;;;21.22;48.54;102044.63;5098894;27;45700;-76
2021/10/11 08:24:19;;;;;;;;;4.75;4.00;;;;;21.24;48.40;102042.81;5097295;27;50785;-75
2021/10/11 08:26:45;;;;;;;;;5.00;5.00;;;;;21.26;48.23;102048.09;5100488;27;50649;-76
2021/10/11 08:29:10;;;;;;;;;6.00;5.50;;;;;21.27;48.06;102048.13;5078831;27;56071;-77
2021/10/11 08:31:36;;;;;;;;;5.00;5.00;;;;;21.24;47.73;102037.53;5092886;27;45567;-77
2021/10/11 08:34:02;;;;;;;;;2.25;2.25;;;;;21.27;48.06;102053.44;5100785;27;45423;-75
2021/10/11 08:36:27;;;;;;;;;7.25;5.00;;;;;21.33;47.94;102047.16;5090698;27;45699;-74
2021/10/11 08:38:53;;;;;;;;;6.00;5.00;;;;;21.36;47.53;102047.97;5084070;27;44991;-75
2021/10/11 08:41:18;;;;;;;;;3.75;3.75;;;;;21.38;47.55;102043.56;5083629;27;51446;-75
2021/10/11 08:43:46;;;;;;;;;5.00;5.00;;;;;21.43;48.12;102046.13;5103197;27;59693;-74
2021/10/11 08:46:12;;;;;;;;;4.75;4.00;;;;;21.49;47.77;102055.78;5109167;27;45216;-76
2021/10/11 08:48:37;;;;;;;;;7.25;5.25;;;;;21.48;47.74;102052.25;5080942;27;45575;-77
2021/10/11 08:51:06;;;;;;;;;6.00;5.00;;;;;21.45;47.35;102046.97;5078857;27;46344;-77
2021/10/11 08:53:32;;;;;;;;;5.75;3.50;;;;;21.41;47.16;102048.81;5087048;27;48313;-80
2021/10/11 08:55:58;;;;;;;;;6.75;5.25;;;;;21.41;47.47;102048.81;5067047;27;45762;-77
2021/10/11 08:58:23;;;;;;;;;5.75;4.00;;;;;21.46;47.61;102062.03;5079278;27;45573;-77
2021/10/11 09:00:48;;;;;;;;;4.75;4.00;;;;;21.49;47.27;102066.41;5099644;27;45235;-78
2021/10/11 09:03:18;;;;;;;;;4.50;4.00;;;;;21.53;46.49;102065.44;5113450;27;46328;-78
2021/10/11 09:05:46;;;;;;;;;2.00;1.00;;;;;21.52;46.48;102056.59;5066650;27;45473;-78
2021/10/11 09:08:13;;;;;;;;;5.00;3.00;;;;;21.54;46.20;102069.84;5084609;27;45418;-79
2021/10/11 09:10:49;;;;;;;;;5.75;5.75;;;;;21.56;46.49;102068.97;5082745;27;45605;-79
2021/10/11 09:13:15;;;;;;;;;3.75;3.75;;;;;21.51;46.21;102056.63;5094460;27;45437;-80
2021/10/11 09:15:40;;;;;;;;;7.25;5.75;;;;;21.59;46.23;102058.28;5096816;27;45405;-81
2021/10/11 09:18:06;;;;;;;;;5.50;4.75;;;;;21.61;46.19;102072.41;5076405;27;45279;-81
2021/10/11 09:20:36;;;;;;;;;3.25;3.25;;;;;21.61;46.50;102069.75;5117765;27;45457;-81
2021/10/11 09:23:02;;;;;;;;;4.00;4.00;;;;;21.66;46.49;102078.53;5083253;27;47141;-80
2021/10/11 09:25:37;;;;;;;;;7.25;3.00;;;;;21.67;45.83;102076.75;5067121;27;45367;-80
2021/10/11 09:28:04;;;;;;;;;7.00;5.00;;;;;21.66;46.13;102069.69;5069826;27;45427;-80
2021/10/11 09:30:31;;;;;;;;;6.50;4.75;;;;;21.64;45.89;102077.69;5085295;27;45397;-79
2021/10/11 09:33:10;;;;;;;;;5.50;5.50;;;;;21.65;46.47;102062.63;5069926;27;47463;-80
2021/10/11 09:35:36;;;;;;;;;3.75;3.75;;;;;21.67;46.04;102060.81;5096363;27;45335;-81
2021/10/11 09:38:01;;;;;;;;;6.25;5.75;;;;;21.68;45.91;102051.94;5095318;27;45867;-81
2021/10/11 09:40:27;;;;;;;;;6.50;5.00;;;;;21.71;46.64;102051.88;5084933;27;45480;-80
2021/10/11 09:42:52;;;;;;;;;5.50;4.50;;;;;21.74;45.93;102051.84;5105191;27;45429;-80
2021/10/11 09:45:24;;;;;;;;;5.00;4.25;;;;;21.73;45.97;102048.31;5101133;27;45466;-80
2021/10/11 09:47:50;;;;;;;;;5.75;5.00;;;;;21.76;45.28;102051.81;5065267;27;45344;-76
2021/10/11 09:50:18;;;;;;;;;6.25;3.50;;;;;21.75;45.89;102052.72;5113355;27;45410;-78
2021/10/11 09:52:44;;;;;;;;;5.50;5.50;;;;;21.79;45.89;102063.25;5081235;27;46198;-78
2021/10/11 09:55:11;;;;;;;;;7.00;5.25;;;;;21.78;45.95;102056.19;5116580;27;45207;-77
2021/10/11 09:57:36;;;;;;;;;6.25;5.00;;;;;21.78;45.96;102052.66;5096928;27;46467;-77
2021/10/11 10:00:09;;;;;;;;;4.00;4.00;;;;;21.74;45.54;102043.88;5084948;27;53976;-71
2021/10/11 10:02:36;;;;;;;;;5.00;3.75;;;;;21.73;45.44;102050.09;5103491;27;48192;-69
2021/10/11 10:05:02;;;;;;;;;5.25;4.00;;;;;21.72;46.03;102051.88;5084288;27;46064;-71
2021/10/11 10:07:29;;;;;;;;;6.00;5.00;;;;;21.71;45.67;102054.53;5093642;27;45727;-71
2021/10/11 10:09:54;;;;;;;;;3.75;2.75;;;;;21.72;45.35;102049.22;5071004;27;45624;-70
2021/10/11 10:12:20;;;;;;;;;4.50;4.00;;;;;21.72;44.64;102043.03;5066496;27;53699;-71
2021/10/11 10:15:01;;;;;;;;;2.75;2.75;;;;;21.70;44.57;102048.34;5066905;27;45461;-71
2021/10/11 10:17:31;;;;;;;;;7.75;4.00;;;;;21.71;44.78;102052.75;5096174;27;45321;-71
2021/10/11 10:20:12;;;;;;;;;4.50;2.75;;;;;21.71;44.62;102047.44;5094754;27;45513;-72
2021/10/11 10:22:42;;;;;;;;;4.00;3.00;;;;;21.73;44.29;102044.78;5078487;27;45935;-72
2021/10/11 10:25:09;;;;;;;;;3.00;3.00;;;;;21.73;44.34;102056.28;5100652;27;45367;-72
2021/10/11 10:27:36;;;;;;;;;3.25;3.25;;;;;21.72;43.81;102043.91;5084013;27;45235;-72
2021/10/11 10:30:22;;;;;;;;;2.50;2.50;;;;;21.71;43.81;102044.78;5076140;27;45272;-72
2021/10/11 10:32:54;;;;;;;;;3.00;3.00;;;;;21.69;42.97;102049.25;5055057;27;47321;-72
2021/10/11 10:35:20;;;;;;;;;4.50;3.00;;;;;21.71;43.48;102051.88;5071452;27;45297;-72
2021/10/11 10:37:45;;;;;;;;;3.25;3.25;;;;;21.69;43.13;102051.03;5103884;27;45343;-72
2021/10/11 10:40:13;;;;;;;;;5.75;3.00;;;;;21.67;43.11;102052.84;5102584;27;57605;-71
2021/10/11 10:42:39;;;;;;;;;4.25;3.00;;;;;21.65;43.25;102036.06;5066443;27;47660;-71
2021/10/11 10:45:23;;;;;;;;;3.00;3.00;;;;;21.56;43.82;102033.53;5055085;27;45345;-72
2021/10/11 10:47:49;;;;;;;;;3.00;2.75;;;;;21.63;43.16;102052.03;5086407;27;45462;-72
2021/10/11 10:50:24;;;;;;;;;5.00;4.00;;;;;21.62;42.95;102038.75;5103186;27;45411;-72
2021/10/11 10:52:52;;;;;;;;;2.00;2.00;;;;;21.62;42.75;102047.59;5109868;27;45535;-72
2021/10/11 10:55:17;;;;;;;;;2.50;2.50;;;;;21.64;43.62;102044.94;5101223;27;45262;-72
2021/10/11 10:57:43;;;;;;;;;4.00;4.00;;;;;21.66;43.32;102048.44;5101717;27;45679;-72
2021/10/11 11:00:13;;;;;;;;;4.00;4.00;;;;;21.68;43.44;102057.25;5082574;27;45469;-72
2021/10/11 11:02:45;;;;;;;;;5.00;3.00;;;;;21.70;43.31;102055.44;5101327;27;46534;-72
2021/10/11 11:05:10;;;;;;;;;3.00;3.00;;;;;21.69;42.62;102054.56;5066740;27;45294;-72
2021/10/11 11:07:37;;;;;;;;;3.75;3.75;;;;;21.69;42.10;102059.88;5082861;27;45617;-72
2021/10/11 11:10:14;;;;;;;;;4.50;3.50;;;;;21.71;42.94;102059.84;5065552;27;45391;-77
2021/10/11 11:12:54;;;;;;;;;3.50;3.00;;;;;21.70;43.46;102060.75;5082907;27;45931;-75